Elgin, Minnesota
Current Conditions -  °F | °C
As of 6:33 AM on Thursday 18 Dec 2014 (Local Time) from K9MN Reporting Station
Broken Clouds Broken Clouds  
Wind Chill: 14°   Ceiling: 1600
Heat Index: 14°   Visibility: 10mi
Dew Point: 10°   Wind: 0mph
Humidity: 83%   Direction: NA
Pressure: 30.27"   Gusts: NA
Location:  44.13°N, 92.25°W
Report Text: K9MN 181233Z AUTO 00000KT 10SM BKN016 M10/M12 A3027 RMK AO1 T11001124
Loading
Personal Weather Stations






























Interactive Weather Map New forecast layout! Learn more

10-Day Weather Forecast

Advertisements
Track Severe Weather on mobile